Terminal Aerodrome Forecast
Issued by NWS

Home | Current Version | Previous Version | Text Only | Print | Product List | Glossary On
Versions: 1 2 3 4 5 6 7 8 9 10 11 12 13 14 15 16 17 18 19 20 21 22 23 24 25 26 27 28 29 30
000
FTUS41 KOKX 010520
TAFSWF
TAF
KSWF 010520Z 0106/0212 VRB04KT 6SM -SHRA BR VCTS SCT006 BKN015CB
      TEMPO 0107/0111 3SM TSRA
     FM011100 VRB06KT 6SM -TSRA BR BKN012CB
     FM011400 24010KT P6SM SCT025 BKN040
     FM011800 26013G20KT P6SM BKN050
     FM020100 28005KT P6SM SCT050 BKN250
      AMD NOT SKED=

USA.gov is the U.S. government's official web portal to all federal, state and local government web resources and services.